Time;durP1;ratioP1;P1;durP2;ratioP2;P2;SDS_P1;SDS_P2;PMS_P1;PMS_P2;Temp;Humidity;BMP_temperature;BMP_pressure;BME280_temperature;BME280_humidity;BME280_pressure;Samples;Min_cycle;Max_cycle;Signal;HPM_P1;HPM_P2
2022/10/19 00:01:57;;;;;;;10.25;6.25;;;;;;;12.36;100.00;99761.06;5059715;28;20017;-62
2022/10/19 00:04:22;;;;;;;9.00;6.13;;;;;;;12.32;100.00;99759.78;5060577;28;20020;-61
2022/10/19 00:06:48;;;;;;;11.10;6.75;;;;;;;12.30;100.00;99756.41;5051869;28;20052;-61
2022/10/19 00:09:16;;;;;;;16.45;7.15;;;;;;;12.31;100.00;99758.09;5049962;28;20070;-62
2022/10/19 00:11:46;;;;;;;12.88;8.63;;;;;;;12.40;100.00;99758.84;5067397;28;20388;-62
2022/10/19 00:14:15;;;;;;;13.88;7.32;;;;;;;12.53;100.00;99772.53;5060093;28;20036;-62
2022/10/19 00:16:41;;;;;;;10.33;7.03;;;;;;;12.53;100.00;99767.13;5063449;28;20056;-61
2022/10/19 00:19:11;;;;;;;11.20;5.78;;;;;;;12.55;100.00;99761.47;5058641;28;20318;-62
2022/10/19 00:21:39;;;;;;;12.77;6.07;;;;;;;12.56;100.00;99771.31;5067881;28;20017;-61
2022/10/19 00:24:05;;;;;;;10.02;6.90;;;;;;;12.52;100.00;99772.72;5060274;28;20017;-62
2022/10/19 00:26:30;;;;;;;14.07;6.03;;;;;;;12.58;100.00;99780.13;5068493;28;20036;-61
2022/10/19 00:28:56;;;;;;;7.53;5.70;;;;;;;12.62;100.00;99776.81;5071402;28;20037;-62
2022/10/19 00:33:49;;;;;;;8.95;5.35;;;;;;;12.67;100.00;99757.22;5059047;22;20053;-69
2022/10/19 00:36:22;;;;;;;8.68;5.75;;;;;;;12.72;100.00;99760.22;5064098;28;20035;-70
2022/10/19 00:38:47;;;;;;;12.25;6.60;;;;;;;12.85;100.00;99775.78;5065322;28;20084;-70
2022/10/19 00:41:14;;;;;;;8.90;6.13;;;;;;;12.91;100.00;99775.84;5071396;28;20024;-70
2022/10/19 00:44:04;;;;;;;10.15;6.25;;;;;;;12.97;100.00;99762.50;5063617;28;20051;-70
2022/10/19 00:46:33;;;;;;;9.48;5.80;;;;;;;13.09;100.00;99764.50;5064756;28;20049;-70
2022/10/19 00:49:03;;;;;;;15.43;6.25;;;;;;;12.98;100.00;99753.34;5067558;28;20312;-70
2022/10/19 00:51:31;;;;;;;9.38;5.40;;;;;;;13.07;100.00;99747.59;5066228;28;20128;-70
2022/10/19 00:53:56;;;;;;;10.18;5.82;;;;;;;13.08;100.00;99741.09;5066894;28;20082;-70
2022/10/19 00:56:22;;;;;;;10.18;6.00;;;;;;;13.07;100.00;99744.00;5071938;28;20032;-70
2022/10/19 00:58:48;;;;;;;10.82;5.65;;;;;;;13.03;100.00;99734.59;5057859;28;20029;-70
2022/10/19 01:01:17;;;;;;;14.52;5.60;;;;;;;13.07;100.00;99736.72;5060417;28;20048;-70
2022/10/19 01:03:43;;;;;;;10.93;6.75;;;;;;;13.11;100.00;99742.59;5043013;28;20025;-70
2022/10/19 01:06:10;;;;;;;12.13;7.60;;;;;;;13.10;100.00;99724.63;5046732;28;20029;-70
2022/10/19 01:08:35;;;;;;;14.50;7.80;;;;;;;13.16;100.00;99742.84;5052333;28;20487;-70
2022/10/19 01:11:03;;;;;;;11.45;6.60;;;;;;;13.23;100.00;99734.72;5047876;28;20032;-69
2022/10/19 01:14:07;;;;;;;15.80;6.90;;;;;;;13.26;100.00;99728.91;5046881;28;20061;-70
2022/10/19 01:17:07;;;;;;;10.73;5.82;;;;;;;13.27;100.00;99742.31;5028960;28;20103;-70
2022/10/19 01:19:54;;;;;;;8.13;5.53;;;;;;;13.30;100.00;99736.47;5051948;28;20309;-69
2022/10/19 01:22:38;;;;;;;8.57;5.63;;;;;;;13.25;100.00;99728.06;5041718;28;20040;-69
2022/10/19 01:25:30;;;;;;;8.23;5.28;;;;;;;13.22;100.00;99731.16;5045169;28;20029;-69
2022/10/19 01:28:12;;;;;;;7.88;5.25;;;;;;;13.24;100.00;99733.69;5052404;28;20166;-69
2022/10/19 01:30:51;;;;;;;11.27;5.90;;;;;;;13.22;100.00;99712.16;5049685;28;20025;-69
2022/10/19 01:33:26;;;;;;;6.50;5.13;;;;;;;13.36;100.00;99724.84;5044213;28;20100;-69
2022/10/19 01:36:17;;;;;;;9.07;5.55;;;;;;;13.34;100.00;99713.31;5045263;28;20463;-69
2022/10/19 01:38:57;;;;;;;6.70;4.97;;;;;;;13.37;100.00;99720.25;5042561;28;20094;-69
2022/10/19 01:41:47;;;;;;;8.57;5.18;;;;;;;13.35;100.00;99717.72;5046339;28;20112;-69
2022/10/19 01:44:21;;;;;;;6.38;5.22;;;;;;;13.41;100.00;99715.22;5046616;28;20029;-69
2022/10/19 01:46:54;;;;;;;6.80;4.82;;;;;;;13.44;100.00;99720.25;5044903;28;20029;-69
2022/10/19 01:49:27;;;;;;;8.38;6.03;;;;;;;13.34;100.00;99690.75;5049955;28;20501;-70
2022/10/19 01:52:03;;;;;;;10.48;6.75;;;;;;;13.52;100.00;99706.53;5038930;28;20075;-70
2022/10/19 01:54:33;;;;;;;12.07;7.22;;;;;;;13.66;100.00;99704.72;5044112;28;20418;-69
2022/10/19 01:57:01;;;;;;;10.82;7.05;;;;;;;13.66;100.00;99700.13;5043764;28;20037;-70
2022/10/19 01:59:26;;;;;;;9.80;6.47;;;;;;;13.70;100.00;99687.81;5047374;28;20028;-70
2022/10/19 02:01:54;;;;;;;10.23;6.53;;;;;;;13.79;100.00;99697.47;5051535;28;20029;-70
2022/10/19 02:04:22;;;;;;;9.00;6.00;;;;;;;13.71;100.00;99683.19;5039430;28;20025;-70
2022/10/19 02:06:50;;;;;;;7.78;5.43;;;;;;;13.65;100.00;99668.53;5050307;28;20032;-70
2022/10/19 02:09:19;;;;;;;9.63;5.70;;;;;;;13.61;100.00;99663.69;5051384;28;20021;-70
2022/10/19 02:11:52;;;;;;;9.05;5.15;;;;;;;13.60;100.00;99662.88;5051330;28;20037;-70
2022/10/19 02:14:21;;;;;;;7.68;5.47;;;;;;;13.53;100.00;99673.69;5043999;28;20021;-70
2022/10/19 02:16:56;;;;;;;7.93;5.28;;;;;;;13.42;100.00;99668.84;5044465;28;20025;-70
2022/10/19 02:19:21;;;;;;;6.70;4.97;;;;;;;13.33;100.00;99668.13;5051669;28;20118;-69
2022/10/19 02:21:47;;;;;;;7.68;5.45;;;;;;;13.16;100.00;99653.19;5049968;28;20068;-70
2022/10/19 02:24:13;;;;;;;8.98;5.45;;;;;;;13.15;100.00;99659.63;5045433;28;20393;-70
2022/10/19 02:26:39;;;;;;;8.15;5.00;;;;;;;12.96;100.00;99650.31;5047043;28;20025;-70
2022/10/19 02:29:05;;;;;;;9.07;4.72;;;;;;;12.93;100.00;99661.56;5047833;28;20515;-69
2022/10/19 02:31:30;;;;;;;7.85;5.35;;;;;;;12.88;100.00;99664.88;5049562;28;20108;-69
2022/10/19 02:33:56;;;;;;;10.45;6.32;;;;;;;12.83;100.00;99661.91;5048776;28;20059;-69
2022/10/19 02:36:21;;;;;;;13.02;7.15;;;;;;;12.73;100.00;99655.97;5049191;28;20486;-70
2022/10/19 02:38:47;;;;;;;11.65;6.68;;;;;;;12.68;100.00;99670.16;5049950;28;20029;-70
2022/10/19 02:41:31;;;;;;;8.82;5.50;;;;;;;12.76;100.00;99674.63;5050646;28;20025;-71
2022/10/19 02:44:14;;;;;;;10.35;5.15;;;;;;;12.78;100.00;99671.69;5045401;28;20024;-70
2022/10/19 02:46:44;;;;;;;9.13;5.63;;;;;;;12.80;100.00;99670.47;5067545;22;20115;-70
2022/10/19 02:49:12;;;;;;;8.43;5.50;;;;;;;12.61;100.00;99654.84;5044548;28;20024;-70
2022/10/19 02:51:40;;;;;;;9.30;5.40;;;;;;;12.61;100.00;99661.13;5051623;28;20017;-69
2022/10/19 02:54:06;;;;;;;10.48;5.68;;;;;;;12.58;100.00;99663.41;5048484;28;20367;-69
2022/10/19 02:56:33;;;;;;;7.18;4.22;;;;;;;12.53;100.00;99665.84;5049916;28;20025;-70
2022/10/19 02:58:59;;;;;;;7.60;4.32;;;;;;;12.44;100.00;99666.00;5043791;28;20122;-72
2022/10/19 03:01:24;;;;;;;4.50;2.88;;;;;;;12.45;100.00;99667.66;5048059;28;20105;-69
2022/10/19 03:03:50;;;;;;;9.27;3.67;;;;;;;12.45;100.00;99667.66;5044278;28;20033;-70
2022/10/19 03:06:15;;;;;;;9.70;5.85;;;;;;;12.49;100.00;99668.94;5044835;28;20033;-70
2022/10/19 03:08:40;;;;;;;9.95;6.55;;;;;;;12.43;100.00;99664.28;5045361;28;20036;-70
2022/10/19 03:11:06;;;;;;;10.73;7.15;;;;;;;12.35;100.00;99661.72;5051127;28;20020;-69
2022/10/19 03:13:31;;;;;;;16.10;8.30;;;;;;;12.28;100.00;99650.78;5045157;28;20029;-70
2022/10/19 03:15:57;;;;;;;17.67;8.18;;;;;;;12.46;100.00;99665.78;5045370;28;20036;-70
2022/10/19 03:18:22;;;;;;;14.60;7.80;;;;;;;12.34;100.00;99660.03;5041294;28;20025;-70
2022/10/19 03:20:47;;;;;;;13.45;6.68;;;;;;;12.56;100.00;99662.75;5048234;28;20033;-70
2022/10/19 03:23:13;;;;;;;10.77;6.07;;;;;;;12.53;100.00;99661.25;5045292;28;20021;-72
2022/10/19 03:25:38;;;;;;;15.02;6.15;;;;;;;12.45;100.00;99667.66;5048335;28;20065;-70
2022/10/19 03:28:03;;;;;;;14.20;6.43;;;;;;;12.42;100.00;99661.78;5049599;28;20036;-70
2022/10/19 03:30:29;;;;;;;11.55;5.95;;;;;;;12.38;100.00;99660.47;5048416;28;20025;-70
2022/10/19 03:32:54;;;;;;;11.02;5.65;;;;;;;12.31;100.00;99660.41;5035072;28;20029;-70
2022/10/19 03:35:19;;;;;;;9.05;5.45;;;;;;;12.37;100.00;99651.50;5047908;28;20028;-69
2022/10/19 03:37:44;;;;;;;10.30;5.82;;;;;;;12.20;100.00;99659.03;5039084;28;20040;-70
2022/10/19 03:40:10;;;;;;;12.75;5.80;;;;;;;12.15;100.00;99650.63;5047050;28;20021;-69
2022/10/19 03:42:35;;;;;;;13.50;6.07;;;;;;;12.11;100.00;99657.50;5047342;28;20107;-70
2022/10/19 03:45:01;;;;;;;8.60;5.75;;;;;;;12.02;100.00;99655.94;5044955;28;20052;-70
2022/10/19 03:47:26;;;;;;;10.48;5.50;;;;;;;12.00;100.00;99664.28;5038393;28;20021;-70
2022/10/19 03:49:51;;;;;;;9.88;6.47;;;;;;;12.06;100.00;99662.66;5044085;28;20059;-70
2022/10/19 03:52:17;;;;;;;10.55;5.20;;;;;;;12.16;100.00;99659.66;5047557;28;20029;-70
2022/10/19 03:54:43;;;;;;;12.85;5.65;;;;;;;12.02;100.00;99667.59;5049642;28;20067;-70
2022/10/19 03:57:09;;;;;;;9.20;5.60;;;;;;;11.91;100.00;99665.41;5056056;28;20021;-70
2022/10/19 03:59:34;;;;;;;8.88;5.72;;;;;;;11.79;100.00;99648.78;5051855;28;20029;-69
2022/10/19 04:01:59;;;;;;;12.80;6.03;;;;;;;11.83;100.00;99654.66;5056311;28;20032;-70
2022/10/19 04:04:25;;;;;;;13.32;6.55;;;;;;;11.80;100.00;99647.72;5051737;28;20021;-70
2022/10/19 04:06:52;;;;;;;15.55;7.10;;;;;;;11.96;100.00;99667.56;5055278;28;20025;-70
2022/10/19 04:09:19;;;;;;;10.55;6.32;;;;;;;11.85;100.00;99671.56;5054211;28;20033;-70
2022/10/19 04:11:44;;;;;;;8.82;6.07;;;;;;;11.71;100.00;99669.72;5042113;28;20025;-70
2022/10/19 04:14:15;;;;;;;8.88;5.68;;;;;;;11.69;100.00;99677.22;5045597;28;20052;-69
2022/10/19 04:16:41;;;;;;;13.32;5.90;;;;;;;11.52;100.00;99649.47;5043164;28;20116;-72
2022/10/19 04:19:07;;;;;;;10.18;6.50;;;;;;;11.54;100.00;99664.50;5047862;28;20154;-73
2022/10/19 04:21:36;;;;;;;8.20;5.75;;;;;;;11.46;100.00;99655.66;5048872;28;20542;-73
2022/10/19 04:24:05;;;;;;;14.60;5.40;;;;;;;11.44;100.00;99663.13;5052965;28;20021;-73
2022/10/19 04:26:33;;;;;;;9.93;5.45;;;;;;;11.31;100.00;99652.94;5041373;28;20155;-73
2022/10/19 04:28:59;;;;;;;7.82;4.63;;;;;;;11.44;100.00;99677.50;5046242;28;20071;-72
2022/10/19 04:31:26;;;;;;;9.27;5.35;;;;;;;11.49;100.00;99680.50;5052517;28;20118;-71
2022/10/19 04:33:52;;;;;;;10.25;5.43;;;;;;;11.41;100.00;99672.47;5042889;28;20437;-73
2022/10/19 04:36:18;;;;;;;11.93;5.85;;;;;;;11.41;100.00;99686.00;5041421;28;20033;-72
2022/10/19 04:38:43;;;;;;;11.82;6.32;;;;;;;11.36;100.00;99666.75;5045318;28;20163;-73
2022/10/19 04:41:11;;;;;;;10.77;5.32;;;;;;;11.39;100.00;99677.22;5048551;28;20025;-74
2022/10/19 04:43:37;;;;;;;7.63;4.75;;;;;;;11.34;100.00;99688.63;5046051;28;20100;-75
2022/10/19 04:46:04;;;;;;;12.77;4.28;;;;;;;11.21;100.00;99684.88;5046456;28;20016;-73
2022/10/19 04:48:30;;;;;;;12.27;4.38;;;;;;;11.12;100.00;99676.84;5051068;28;20036;-72
2022/10/19 04:50:55;;;;;;;9.50;4.28;;;;;;;11.01;100.00;99657.50;5039234;28;20030;-74
2022/10/19 04:53:21;;;;;;;10.40;3.78;;;;;;;11.10;100.00;99684.31;5044995;28;20029;-70
2022/10/19 04:55:46;;;;;;;6.65;3.67;;;;;;;11.01;100.00;99684.59;5049131;28;20497;-70
2022/10/19 04:58:11;;;;;;;7.88;3.75;;;;;;;10.82;100.00;99665.13;5052951;28;20506;-72
2022/10/19 05:00:37;;;;;;;8.50;4.25;;;;;;;10.93;100.00;99689.06;5051969;28;20106;-70
2022/10/19 05:03:03;;;;;;;7.93;4.40;;;;;;;10.86;100.00;99689.97;5051923;28;20021;-75
2022/10/19 05:05:28;;;;;;;12.38;4.68;;;;;;;10.92;100.00;99687.34;5051285;28;20028;-74
2022/10/19 05:07:54;;;;;;;7.05;4.55;;;;;;;10.90;100.00;99675.88;5045366;28;20020;-73
2022/10/19 05:10:19;;;;;;;7.22;5.28;;;;;;;10.97;100.00;99700.34;5046262;28;20043;-74
2022/10/19 05:12:44;;;;;;;7.88;4.78;;;;;;;10.94;100.00;99687.19;5041391;28;20043;-73
2022/10/19 05:15:10;;;;;;;7.30;4.60;;;;;;;10.89;100.00;99703.13;5043081;28;20394;-73
2022/10/19 05:17:35;;;;;;;7.07;4.68;;;;;;;10.75;100.00;99688.53;5051904;28;20031;-73
2022/10/19 05:20:00;;;;;;;10.60;4.93;;;;;;;10.70;100.00;99688.25;5045196;28;20033;-73
2022/10/19 05:22:26;;;;;;;9.02;5.60;;;;;;;10.51;100.00;99678.78;5049619;28;20028;-73
2022/10/19 05:24:51;;;;;;;13.77;6.03;;;;;;;10.51;100.00;99676.06;5052032;28;20013;-73
2022/10/19 05:27:16;;;;;;;9.88;5.88;;;;;;;10.51;100.00;99665.25;5048820;28;20070;-73
2022/10/19 05:29:42;;;;;;;12.65;5.72;;;;;;;10.64;100.00;99686.28;5039038;28;20036;-73
2022/10/19 05:32:07;;;;;;;8.88;5.72;;;;;;;10.53;100.00;99684.81;5041512;28;20447;-72
2022/10/19 05:34:32;;;;;;;10.18;6.32;;;;;;;10.44;100.00;99675.94;5050755;28;20113;-73
2022/10/19 05:36:58;;;;;;;10.60;5.80;;;;;;;10.32;100.00;99653.03;5044358;28;20390;-75
2022/10/19 05:39:23;;;;;;;10.65;5.50;;;;;;;10.34;100.00;99650.16;5044890;28;20107;-75
2022/10/19 05:41:48;;;;;;;10.23;6.13;;;;;;;10.42;100.00;99659.03;5048268;28;20029;-74
2022/10/19 05:44:19;;;;;;;16.15;6.85;;;;;;;10.55;100.00;99674.66;5046525;28;20021;-75
2022/10/19 05:46:46;;;;;;;25.13;7.03;;;;;;;10.58;100.00;99674.28;5050872;28;20029;-75
2022/10/19 05:49:12;;;;;;;12.25;6.70;;;;;;;10.62;100.00;99681.03;5045741;28;20036;-72
2022/10/19 05:51:38;;;;;;;18.45;7.82;;;;;;;10.73;100.00;99677.06;5051710;28;20060;-73
2022/10/19 05:54:04;;;;;;;46.38;8.55;;;;;;;10.76;100.00;99682.09;5045489;28;20053;-74
2022/10/19 05:56:31;;;;;;;23.48;8.52;;;;;;;10.78;100.00;99674.63;5047478;28;20087;-74
2022/10/19 05:58:58;;;;;;;19.25;7.00;;;;;;;10.82;100.00;99669.69;5046336;28;20048;-75
2022/10/19 06:01:24;;;;;;;21.15;6.18;;;;;;;10.67;100.00;99661.56;5050893;28;20017;-74
2022/10/19 06:03:52;;;;;;;73.18;8.93;;;;;;;10.75;100.00;99680.44;5051804;28;20098;-75
2022/10/19 06:06:17;;;;;;;34.60;9.93;;;;;;;10.66;100.00;99666.13;5045005;28;20036;-75
2022/10/19 06:08:44;;;;;;;13.95;6.50;;;;;;;10.70;100.00;99666.59;5052064;28;20398;-76
2022/10/19 06:11:14;;;;;;;103.72;9.77;;;;;;;10.65;100.00;99672.56;5050786;28;20371;-75
2022/10/19 06:13:42;;;;;;;66.57;9.00;;;;;;;10.74;100.00;99682.28;5048275;28;20041;-76
2022/10/19 06:16:09;;;;;;;55.42;7.97;;;;;;;10.68;100.00;99658.66;5046192;28;20032;-71
2022/10/19 06:18:35;;;;;;;81.50;7.93;;;;;;;10.89;100.00;99681.47;5045006;28;20020;-71
2022/10/19 06:21:12;;;;;;;15.30;5.80;;;;;;;10.99;100.00;99668.50;5038948;28;20035;-71
2022/10/19 06:23:37;;;;;;;9.15;6.25;;;;;;;10.90;100.00;99643.41;5047853;28;20509;-71
2022/10/19 06:26:07;;;;;;;20.83;6.72;;;;;;;11.04;100.00;99652.56;5048058;28;20033;-75
2022/10/19 06:28:32;;;;;;;14.57;6.55;;;;;;;11.28;100.00;99658.72;5052111;28;20108;-78
2022/10/19 06:30:58;;;;;;;12.35;6.03;;;;;;;11.29;100.00;99671.22;5049980;28;20182;-76
2022/10/19 06:33:24;;;;;;;92.13;7.25;;;;;;;11.23;100.00;99677.41;5050310;28;20398;-75
2022/10/19 06:35:49;;;;;;;10.35;4.53;;;;;;;11.35;100.00;99674.06;5044647;28;20386;-75
2022/10/19 06:38:15;;;;;;;39.03;6.55;;;;;;;11.23;100.00;99662.00;5050549;28;20043;-76
2022/10/19 06:40:40;;;;;;;13.52;6.57;;;;;;;11.58;100.00;99660.41;5048353;28;20033;-79
2022/10/19 06:43:05;;;;;;;54.45;6.03;;;;;;;11.70;100.00;99678.88;5053022;28;20533;-76
2022/10/19 06:45:31;;;;;;;29.60;5.63;;;;;;;11.87;100.00;99645.16;5042759;28;20029;-78
2022/10/19 06:47:56;;;;;;;14.57;5.25;;;;;;;11.87;100.00;99657.84;5053377;28;20020;-76
2022/10/19 06:50:21;;;;;;;9.18;4.57;;;;;;;12.34;100.00;99673.59;5054847;28;20024;-77
2022/10/19 06:52:47;;;;;;;17.75;4.47;;;;;;;12.28;100.00;99655.38;5045676;28;20025;-78
2022/10/19 06:55:12;;;;;;;7.53;4.22;;;;;;;12.39;100.00;99651.28;5049389;28;20081;-77
2022/10/19 06:57:37;;;;;;;6.90;4.30;;;;;;;12.40;100.00;99663.84;5049170;28;20040;-73
2022/10/19 07:00:05;;;;;;;6.10;4.07;;;;;;;12.57;100.00;99658.97;5038451;28;20033;-76
2022/10/19 07:02:31;;;;;;;8.27;4.03;;;;;;;12.74;100.00;99659.56;5036559;28;20088;-77
2022/10/19 07:04:56;;;;;;;9.77;3.92;;;;;;;12.52;100.00;99645.97;5050023;28;20025;-76
2022/10/19 07:07:21;;;;;;;5.20;3.80;;;;;;;12.64;100.00;99651.75;5044285;28;20031;-77
2022/10/19 07:09:47;;;;;;;6.80;3.92;;;;;;;12.86;100.00;99656.13;5046790;28;20025;-77
2022/10/19 07:12:12;;;;;;;9.63;3.63;;;;;;;12.85;100.00;99629.13;5049529;28;20541;-77
2022/10/19 07:14:38;;;;;;;5.47;3.95;;;;;;;13.28;100.00;99635.31;5039461;28;20379;-76
2022/10/19 07:17:09;;;;;;;4.07;2.95;;;;;;;13.54;100.00;99650.88;5043054;28;20487;-77
2022/10/19 07:19:34;;;;;;;4.97;3.25;;;;;;;14.00;100.00;99643.97;5040532;28;20591;-77
2022/10/19 07:21:59;;;;;;;3.55;2.97;;;;;;;14.33;100.00;99637.75;5042643;28;20163;-77
2022/10/19 07:24:25;;;;;;;4.78;3.28;;;;;;;14.83;100.00;99600.94;5039208;28;20625;-77
2022/10/19 07:26:50;;;;;;;5.90;3.88;;;;;;;15.17;100.00;99609.03;5045830;28;20032;-77
2022/10/19 07:29:16;;;;;;;6.05;4.25;;;;;;;15.28;100.00;99619.28;5041750;28;20095;-77
2022/10/19 07:31:41;;;;;;;6.75;3.88;;;;;;;15.52;100.00;99620.47;5048618;28;20040;-77
2022/10/19 07:34:10;;;;;;;4.68;3.40;;;;;;;16.06;100.00;99634.72;5041765;28;22380;-72
2022/10/19 07:36:36;;;;;;;5.57;3.15;;;;;;;16.23;100.00;99641.34;5040398;28;20505;-70
2022/10/19 07:39:05;;;;;;;3.53;2.72;;;;;;;16.63;100.00;99624.66;5044610;28;20033;-73
2022/10/19 07:41:30;;;;;;;3.70;2.93;;;;;;;16.58;100.00;99636.28;5044628;28;20029;-75
2022/10/19 07:43:56;;;;;;;4.05;3.20;;;;;;;16.49;100.00;99629.41;5046402;28;20275;-75
2022/10/19 07:46:32;;;;;;;8.90;4.43;;;;;;;16.23;100.00;99626.88;5045989;28;20075;-75
2022/10/19 07:48:58;;;;;;;3.92;2.97;;;;;;;16.58;100.00;99632.69;5051812;28;20111;-76
2022/10/19 07:51:24;;;;;;;4.70;3.47;;;;;;;17.50;100.00;99641.09;5049437;28;20029;-75
2022/10/19 07:53:49;;;;;;;4.57;2.90;;;;;;;19.63;100.00;99632.31;5047527;28;20033;-75
2022/10/19 07:56:20;;;;;;;5.32;3.25;;;;;;;21.00;100.00;99633.22;5048202;28;20387;-75
2022/10/19 07:58:46;;;;;;;4.65;3.30;;;;;;;21.89;100.00;99637.78;5044059;28;20448;-75
2022/10/19 08:01:19;;;;;;;4.50;3.40;;;;;;;20.74;100.00;99634.72;5052055;28;20021;-72
2022/10/19 08:03:45;;;;;;;3.90;3.13;;;;;;;20.07;100.00;99654.66;5038221;28;20021;-74
2022/10/19 08:06:15;;;;;;;7.43;4.10;;;;;;;19.42;100.00;99651.09;5042304;28;20040;-70
2022/10/19 08:08:41;;;;;;;8.10;4.43;;;;;;;18.77;100.00;99642.97;5039977;28;20144;-73
2022/10/19 08:11:12;;;;;;;7.07;4.90;;;;;;;18.48;100.00;99647.41;5041608;28;20021;-70
2022/10/19 08:13:38;;;;;;;9.77;5.13;;;;;;;17.98;100.00;99640.34;5052402;28;20029;-75
2022/10/19 08:16:04;;;;;;;10.55;5.78;;;;;;;17.66;100.00;99637.75;5044240;28;20371;-71
2022/10/19 08:18:30;;;;;;;9.10;5.68;;;;;;;17.46;100.00;99634.41;5042503;28;20111;-71
2022/10/19 08:20:55;;;;;;;12.43;6.03;;;;;;;17.13;100.00;99641.06;5042371;28;20033;-71
2022/10/19 08:23:26;;;;;;;8.88;5.28;;;;;;;17.31;100.00;99634.78;5050573;28;20031;-71
2022/10/19 08:25:55;;;;;;;9.40;5.72;;;;;;;17.04;100.00;99639.69;5033763;28;20108;-72
2022/10/19 08:28:21;;;;;;;7.18;5.00;;;;;;;17.13;100.00;99637.50;5042873;28;20104;-70
2022/10/19 08:30:46;;;;;;;10.40;5.35;;;;;;;17.15;100.00;99633.47;5047041;28;20495;-69
2022/10/19 08:33:14;;;;;;;12.00;5.55;;;;;;;17.03;100.00;99633.41;5045443;28;20029;-70
2022/10/19 08:35:39;;;;;;;9.55;5.18;;;;;;;17.11;100.00;99624.06;5043149;28;20399;-70
2022/10/19 08:38:04;;;;;;;9.07;4.75;;;;;;;17.08;100.00;99624.50;5039353;28;20027;-70
2022/10/19 08:40:30;;;;;;;11.65;5.28;;;;;;;17.60;100.00;99633.19;5039330;28;20049;-70
2022/10/19 08:42:58;;;;;;;8.93;4.05;;;;;;;17.76;100.00;99626.25;5044813;28;20464;-72
2022/10/19 08:45:35;;;;;;;8.87;4.37;;;;;;;17.64;100.00;99628.09;5044449;28;20071;-73
2022/10/19 08:48:21;;;;;;;10.63;4.57;;;;;;;17.45;100.00;99630.03;5043327;28;20025;-70
2022/10/19 08:50:47;;;;;;;6.40;4.13;;;;;;;17.36;100.00;99626.72;5036243;28;20034;-76
2022/10/19 08:53:24;;;;;;;10.80;4.30;;;;;;;17.15;100.00;99629.91;5049104;28;20029;-75
2022/10/19 08:56:01;;;;;;;7.72;4.35;;;;;;;17.35;100.00;99635.19;5049023;28;20466;-75
2022/10/19 08:58:48;;;;;;;8.73;4.53;;;;;;;17.60;100.00;99638.66;5050425;28;20024;-74
2022/10/19 09:01:26;;;;;;;6.38;4.00;;;;;;;17.54;100.00;99634.09;5038329;28;20040;-75
2022/10/19 09:04:00;;;;;;;7.75;3.95;;;;;;;17.12;100.00;99608.50;5040867;28;20016;-75
2022/10/19 09:06:35;;;;;;;7.45;4.20;;;;;;;17.07;100.00;99620.09;5043633;28;20742;-75
2022/10/19 09:09:00;;;;;;;6.72;3.75;;;;;;;17.34;100.00;99617.06;5040906;28;20030;-74
2022/10/19 09:11:34;;;;;;;6.90;3.65;;;;;;;17.13;100.00;99618.34;5041980;28;20075;-75
2022/10/19 09:14:26;;;;;;;5.72;3.65;;;;;;;17.47;100.00;99617.75;5038039;28;20098;-75
2022/10/19 09:16:57;;;;;;;8.40;3.67;;;;;;;17.48;100.00;99619.44;5040790;28;20034;-70
2022/10/19 09:19:28;;;;;;;9.52;3.50;;;;;;;17.46;100.00;99624.31;5043659;28;20074;-70
2022/10/19 09:22:05;;;;;;;7.85;3.60;;;;;;;17.34;100.00;99623.38;5042590;28;20037;-70
2022/10/19 09:24:37;;;;;;;9.88;3.38;;;;;;;17.08;100.00;99616.28;5044271;28;20433;-72
2022/10/19 09:27:04;;;;;;;5.68;3.13;;;;;;;17.12;100.00;99625.72;5046086;28;20025;-72
2022/10/19 09:29:41;;;;;;;5.65;3.00;;;;;;;17.13;100.00;99621.91;5043937;28;20109;-72
2022/10/19 09:32:14;;;;;;;4.40;2.83;;;;;;;17.55;100.00;99624.81;5047753;28;20032;-72
2022/10/19 09:34:45;;;;;;;4.47;3.08;;;;;;;17.57;100.00;99617.22;5048004;28;20029;-72
2022/10/19 09:37:11;;;;;;;3.97;2.75;;;;;;;17.78;100.00;99617.81;5042908;28;20033;-72
2022/10/19 09:39:36;;;;;;;7.18;3.10;;;;;;;17.73;100.00;99622.06;5045634;28;20104;-72
2022/10/19 09:42:27;;;;;;;4.75;2.80;;;;;;;17.98;100.00;99609.38;5039915;28;20186;-71
2022/10/19 09:44:53;;;;;;;4.43;2.47;;;;;;;18.26;100.00;99603.25;5046680;28;20088;-70
2022/10/19 09:47:35;;;;;;;3.50;2.35;;;;;;;18.51;100.00;99609.41;5045157;28;20119;-70
2022/10/19 09:50:08;;;;;;;5.45;2.70;;;;;;;18.53;100.00;99611.94;5040665;28;20384;-70
2022/10/19 09:52:36;;;;;;;4.53;2.50;;;;;;;18.76;100.00;99614.72;5042011;28;20498;-70
2022/10/19 09:55:32;;;;;;;8.23;2.95;;;;;;;18.71;100.00;99608.25;5044619;28;20033;-70
2022/10/19 09:58:01;;;;;;;7.18;2.50;;;;;;;18.76;100.00;99612.00;5041726;28;20032;-70
2022/10/19 10:00:37;;;;;;;5.18;2.38;;;;;;;18.55;100.00;99613.34;5041890;28;20094;-70
2022/10/19 10:03:04;;;;;;;4.03;2.80;;;;;;;18.44;100.00;99605.94;5040275;28;20043;-70
2022/10/19 10:05:40;;;;;;;6.40;2.72;;;;;;;18.45;100.00;99584.88;5030087;28;20029;-70
2022/10/19 10:08:14;;;;;;;5.00;2.58;;;;;;;18.53;100.00;99596.31;5038761;28;20434;-70
2022/10/19 10:10:58;;;;;;;2.55;1.80;;;;;;;18.83;100.00;99604.47;5038533;28;20040;-70
2022/10/19 10:13:26;;;;;;;5.65;2.70;;;;;;;19.05;100.00;99609.38;5044416;28;20036;-70
2022/10/19 10:15:59;;;;;;;3.00;2.00;;;;;;;20.47;100.00;99596.88;5043940;28;20029;-71
2022/10/19 10:18:27;;;;;;;4.95;2.05;;;;;;;23.05;97.62;99591.47;5042919;28;20040;-70
2022/10/19 10:21:13;;;;;;;7.77;2.43;;;;;;;24.88;76.02;99590.34;5042940;28;21620;-70
2022/10/19 10:23:38;;;;;;;2.70;1.88;;;;;;;25.17;70.57;99573.16;5037731;28;20052;-70
2022/10/19 10:26:16;;;;;;;6.43;2.22;;;;;;;25.47;67.77;99581.41;5048019;28;20111;-73
2022/10/19 10:28:49;;;;;;;3.92;2.13;;;;;;;24.55;69.36;99580.69;5041347;28;20116;-70
2022/10/19 10:31:18;;;;;;;3.78;2.05;;;;;;;26.05;63.63;99572.53;5041562;28;20037;-70
2022/10/19 10:33:51;;;;;;;;;;;;;;;25.34;63.57;99576.47;5039564;28;20692;-71
2022/10/19 10:36:17;;;;;;;;;;;;;;;25.94;62.05;99577.31;5040766;28;20366;-71
2022/10/19 10:38:48;;;;;;;;;;;;;;;27.38;57.80;99570.56;5046235;28;19986;-70
2022/10/19 10:41:14;;;;;;;;;;;;;;;29.35;51.28;99564.19;5047064;28;19919;-71
2022/10/19 10:43:51;;;;;;;;;;;;;;;29.63;48.21;99558.59;5036923;28;19935;-73
2022/10/19 10:46:19;;;;;;;;;;;;;;;29.19;49.16;99552.53;5044257;28;20046;-73
2022/10/19 10:48:51;;;;;;;;;;;;;;;29.58;47.69;99550.34;5045993;28;19916;-73
2022/10/19 10:51:19;;;;;;;;;;;;;;;28.10;49.91;99548.22;5054610;28;20366;-70
2022/10/19 10:53:45;;;;;;;;;;;;;;;29.12;49.07;99549.31;5046001;28;19959;-70
2022/10/19 10:56:27;;;;;;;;;;;;;;;29.27;47.75;99545.41;5046029;28;19971;-71
2022/10/19 10:58:58;;;;;;;;;;;;;;;29.65;47.33;99543.22;5042746;28;19916;-70
2022/10/19 11:01:27;;;;;;;;;;;;;;;28.71;48.70;99538.91;5041249;28;19920;-70
2022/10/19 11:04:00;;;;;;;;;;;;;;;27.54;50.31;99544.25;5042150;28;20266;-70
2022/10/19 11:06:25;;;;;;;;;;;;;;;26.19;53.45;99529.16;5043608;28;20294;-71
2022/10/19 11:08:51;;;;;;;;;;;;;;;26.63;54.23;99531.06;5042987;28;19916;-70
2022/10/19 11:11:19;;;;;;;;;;;;;;;27.32;51.96;99520.59;5043545;28;20011;-70
2022/10/19 11:13:50;;;;;;;;;;;;;;;27.48;51.33;99529.59;5043623;28;19927;-70
2022/10/19 11:16:17;;;;;;;;;;;;;;;27.61;50.80;99521.66;5041281;28;19913;-70
2022/10/19 11:18:42;;;;;;;;;;;;;;;28.05;49.34;99524.09;5044258;28;19916;-70
2022/10/19 11:21:26;;;;;;;;;;;;;;;28.99;47.46;99514.69;5040969;28;20586;-71
2022/10/19 11:24:06;;;;;;;;;;;;;;;28.44;49.32;99509.03;5041234;28;19917;-70
2022/10/19 11:26:51;;;;;;;;;;;;;;;27.66;50.36;99505.72;5046746;28;19916;-71
2022/10/19 11:29:25;;;;;;;;;;;;;;;27.53;50.41;99503.69;5042631;28;19916;-73
2022/10/19 11:31:52;;;;;;;;;;;;;;;25.99;54.01;99502.44;5038034;28;19920;-74
2022/10/19 11:34:32;;;;;;;;;;;;;;;24.82;57.63;99502.91;5047266;28;19917;-71
2022/10/19 11:37:13;;;;;;;;;;;;;;;24.58;58.38;99486.91;5044758;28;19919;-71
2022/10/19 11:39:56;;;;;;;;;;;;;;;24.27;61.82;99492.41;5046418;28;20010;-71
2022/10/19 11:42:35;;;;;;;;;;;;;;;24.41;62.39;99483.56;5032902;28;19913;-72